sensor_id;sensor_type;location;lat;lon;timestamp;P1;durP1;ratioP1;P2;durP2;ratioP2
66402;SDS011;53212;52.112;5.144;2024-03-06T00:00:28;19.40;;;17.50;;
66402;SDS011;53212;52.112;5.144;2024-03-06T00:02:53;19.70;;;15.80;;
66402;SDS011;53212;52.112;5.144;2024-03-06T00:05:20;17.30;;;15.60;;
66402;SDS011;53212;52.112;5.144;2024-03-06T00:07:45;19.90;;;15.10;;
66402;SDS011;53212;52.112;5.144;2024-03-06T00:10:11;23.70;;;17.00;;
66402;SDS011;53212;52.112;5.144;2024-03-06T00:12:36;16.20;;;14.50;;
66402;SDS011;53212;52.112;5.144;2024-03-06T00:15:02;19.80;;;16.50;;
66402;SDS011;53212;52.112;5.144;2024-03-06T00:17:28;19.40;;;15.80;;
66402;SDS011;53212;52.112;5.144;2024-03-06T00:19:53;17.10;;;15.30;;
66402;SDS011;53212;52.112;5.144;2024-03-06T00:22:19;17.70;;;15.10;;
66402;SDS011;53212;52.112;5.144;2024-03-06T00:24:44;20.60;;;17.10;;
66402;SDS011;53212;52.112;5.144;2024-03-06T00:27:10;18.10;;;16.20;;
66402;SDS011;53212;52.112;5.144;2024-03-06T00:29:35;19.10;;;17.20;;
66402;SDS011;53212;52.112;5.144;2024-03-06T00:32:03;17.80;;;15.90;;
66402;SDS011;53212;52.112;5.144;2024-03-06T00:34:29;17.40;;;15.60;;
66402;SDS011;53212;52.112;5.144;2024-03-06T00:36:54;19.10;;;17.10;;
66402;SDS011;53212;52.112;5.144;2024-03-06T00:39:20;17.00;;;15.30;;
66402;SDS011;53212;52.112;5.144;2024-03-06T00:41:45;18.70;;;16.90;;
66402;SDS011;53212;52.112;5.144;2024-03-06T00:44:11;20.40;;;18.20;;
66402;SDS011;53212;52.112;5.144;2024-03-06T00:46:36;26.60;;;18.90;;
66402;SDS011;53212;52.112;5.144;2024-03-06T00:49:02;26.50;;;19.60;;
66402;SDS011;53212;52.112;5.144;2024-03-06T00:51:27;27.70;;;18.60;;
66402;SDS011;53212;52.112;5.144;2024-03-06T00:53:52;19.00;;;16.80;;
66402;SDS011;53212;52.112;5.144;2024-03-06T00:56:18;23.30;;;17.10;;
66402;SDS011;53212;52.112;5.144;2024-03-06T00:58:43;19.60;;;16.60;;
66402;SDS011;53212;52.112;5.144;2024-03-06T01:01:09;22.70;;;17.30;;
66402;SDS011;53212;52.112;5.144;2024-03-06T01:03:34;24.30;;;18.40;;
66402;SDS011;53212;52.112;5.144;2024-03-06T01:06:00;19.10;;;17.10;;
66402;SDS011;53212;52.112;5.144;2024-03-06T01:08:25;19.80;;;17.70;;
66402;SDS011;53212;52.112;5.144;2024-03-06T01:10:51;20.10;;;17.40;;
66402;SDS011;53212;52.112;5.144;2024-03-06T01:13:18;20.70;;;18.50;;
66402;SDS011;53212;52.112;5.144;2024-03-06T01:15:44;20.50;;;18.00;;
66402;SDS011;53212;52.112;5.144;2024-03-06T01:18:09;20.60;;;18.30;;
66402;SDS011;53212;52.112;5.144;2024-03-06T01:20:35;20.70;;;18.40;;
66402;SDS011;53212;52.112;5.144;2024-03-06T01:23:01;21.30;;;18.70;;
66402;SDS011;53212;52.112;5.144;2024-03-06T01:25:26;20.00;;;17.90;;
66402;SDS011;53212;52.112;5.144;2024-03-06T01:27:52;21.30;;;19.20;;
66402;SDS011;53212;52.112;5.144;2024-03-06T01:30:17;21.60;;;18.30;;
66402;SDS011;53212;52.112;5.144;2024-03-06T01:32:43;19.90;;;17.40;;
66402;SDS011;53212;52.112;5.144;2024-03-06T01:35:08;21.50;;;18.10;;
66402;SDS011;53212;52.112;5.144;2024-03-06T01:37:34;17.90;;;16.00;;
66402;SDS011;53212;52.112;5.144;2024-03-06T01:40:00;18.90;;;16.90;;
66402;SDS011;53212;52.112;5.144;2024-03-06T01:42:25;19.50;;;17.40;;
66402;SDS011;53212;52.112;5.144;2024-03-06T01:44:50;19.10;;;17.00;;
66402;SDS011;53212;52.112;5.144;2024-03-06T01:47:16;20.10;;;18.00;;
66402;SDS011;53212;52.112;5.144;2024-03-06T01:49:42;19.60;;;17.60;;
66402;SDS011;53212;52.112;5.144;2024-03-06T01:52:09;19.30;;;17.30;;
66402;SDS011;53212;52.112;5.144;2024-03-06T01:54:38;20.60;;;17.40;;
66402;SDS011;53212;52.112;5.144;2024-03-06T01:57:04;19.80;;;17.70;;
66402;SDS011;53212;52.112;5.144;2024-03-06T01:59:33;20.60;;;17.80;;
66402;SDS011;53212;52.112;5.144;2024-03-06T02:01:58;20.20;;;18.20;;
66402;SDS011;53212;52.112;5.144;2024-03-06T02:04:26;21.60;;;18.40;;
66402;SDS011;53212;52.112;5.144;2024-03-06T02:06:53;20.40;;;18.20;;
66402;SDS011;53212;52.112;5.144;2024-03-06T02:09:19;22.40;;;19.80;;
66402;SDS011;53212;52.112;5.144;2024-03-06T02:11:45;21.90;;;19.30;;
66402;SDS011;53212;52.112;5.144;2024-03-06T02:14:10;22.50;;;20.20;;
66402;SDS011;53212;52.112;5.144;2024-03-06T02:16:36;22.70;;;20.20;;
66402;SDS011;53212;52.112;5.144;2024-03-06T02:19:04;21.80;;;19.50;;
66402;SDS011;53212;52.112;5.144;2024-03-06T02:21:30;25.30;;;20.60;;
66402;SDS011;53212;52.112;5.144;2024-03-06T02:23:55;24.10;;;21.60;;
66402;SDS011;53212;52.112;5.144;2024-03-06T02:26:22;23.50;;;21.10;;
66402;SDS011;53212;52.112;5.144;2024-03-06T02:28:52;26.10;;;21.60;;
66402;SDS011;53212;52.112;5.144;2024-03-06T02:31:20;23.10;;;20.80;;
66402;SDS011;53212;52.112;5.144;2024-03-06T02:33:47;26.40;;;22.60;;
66402;SDS011;53212;52.112;5.144;2024-03-06T02:36:14;27.50;;;21.80;;
66402;SDS011;53212;52.112;5.144;2024-03-06T02:38:43;24.30;;;21.20;;
66402;SDS011;53212;52.112;5.144;2024-03-06T02:41:12;26.70;;;22.00;;
66402;SDS011;53212;52.112;5.144;2024-03-06T02:43:41;23.60;;;21.00;;
66402;SDS011;53212;52.112;5.144;2024-03-06T02:46:07;24.30;;;21.70;;
66402;SDS011;53212;52.112;5.144;2024-03-06T02:48:33;25.00;;;22.10;;
66402;SDS011;53212;52.112;5.144;2024-03-06T02:50:59;26.10;;;21.20;;
66402;SDS011;53212;52.112;5.144;2024-03-06T02:53:25;24.90;;;22.10;;
66402;SDS011;53212;52.112;5.144;2024-03-06T02:55:50;24.90;;;20.90;;
66402;SDS011;53212;52.112;5.144;2024-03-06T02:58:16;25.10;;;22.10;;
66402;SDS011;53212;52.112;5.144;2024-03-06T03:00:45;24.70;;;22.10;;
66402;SDS011;53212;52.112;5.144;2024-03-06T03:03:10;32.00;;;22.10;;
66402;SDS011;53212;52.112;5.144;2024-03-06T03:05:39;29.00;;;23.00;;
66402;SDS011;53212;52.112;5.144;2024-03-06T03:08:06;27.60;;;22.30;;
66402;SDS011;53212;52.112;5.144;2024-03-06T03:10:31;30.60;;;23.50;;
66402;SDS011;53212;52.112;5.144;2024-03-06T03:12:59;25.60;;;22.50;;
66402;SDS011;53212;52.112;5.144;2024-03-06T03:15:25;30.10;;;23.20;;
66402;SDS011;53212;52.112;5.144;2024-03-06T03:17:50;26.40;;;23.50;;
66402;SDS011;53212;52.112;5.144;2024-03-06T03:20:16;27.10;;;24.10;;
66402;SDS011;53212;52.112;5.144;2024-03-06T03:22:42;25.60;;;22.90;;
66402;SDS011;53212;52.112;5.144;2024-03-06T03:25:09;29.90;;;23.90;;
66402;SDS011;53212;52.112;5.144;2024-03-06T03:27:40;30.60;;;24.20;;
66402;SDS011;53212;52.112;5.144;2024-03-06T03:30:10;32.00;;;24.00;;
66402;SDS011;53212;52.112;5.144;2024-03-06T03:32:36;31.00;;;23.50;;
66402;SDS011;53212;52.112;5.144;2024-03-06T03:35:06;30.20;;;23.70;;
66402;SDS011;53212;52.112;5.144;2024-03-06T03:37:32;30.00;;;23.20;;
66402;SDS011;53212;52.112;5.144;2024-03-06T03:39:59;33.30;;;24.30;;
66402;SDS011;53212;52.112;5.144;2024-03-06T03:42:24;31.00;;;23.90;;
66402;SDS011;53212;52.112;5.144;2024-03-06T03:44:50;30.10;;;23.10;;
66402;SDS011;53212;52.112;5.144;2024-03-06T03:47:15;33.70;;;25.50;;
66402;SDS011;53212;52.112;5.144;2024-03-06T03:49:41;33.20;;;23.60;;
66402;SDS011;53212;52.112;5.144;2024-03-06T03:52:07;30.10;;;24.60;;
66402;SDS011;53212;52.112;5.144;2024-03-06T03:54:33;30.80;;;25.40;;
66402;SDS011;53212;52.112;5.144;2024-03-06T03:56:59;28.10;;;24.60;;
66402;SDS011;53212;52.112;5.144;2024-03-06T03:59:25;32.30;;;24.60;;
66402;SDS011;53212;52.112;5.144;2024-03-06T04:01:51;27.80;;;24.80;;
66402;SDS011;53212;52.112;5.144;2024-03-06T04:04:16;29.00;;;24.90;;
66402;SDS011;53212;52.112;5.144;2024-03-06T04:06:42;29.60;;;23.80;;
66402;SDS011;53212;52.112;5.144;2024-03-06T04:09:07;29.80;;;24.10;;
66402;SDS011;53212;52.112;5.144;2024-03-06T04:11:36;32.00;;;24.60;;
66402;SDS011;53212;52.112;5.144;2024-03-06T04:14:03;32.50;;;25.90;;
66402;SDS011;53212;52.112;5.144;2024-03-06T04:16:29;34.20;;;25.50;;
66402;SDS011;53212;52.112;5.144;2024-03-06T04:18:55;32.50;;;25.20;;
66402;SDS011;53212;52.112;5.144;2024-03-06T04:21:20;34.10;;;26.00;;
66402;SDS011;53212;52.112;5.144;2024-03-06T04:23:47;28.20;;;25.10;;
66402;SDS011;53212;52.112;5.144;2024-03-06T04:26:13;27.60;;;24.40;;
66402;SDS011;53212;52.112;5.144;2024-03-06T04:28:38;27.40;;;24.30;;
66402;SDS011;53212;52.112;5.144;2024-03-06T04:31:04;30.00;;;24.40;;
66402;SDS011;53212;52.112;5.144;2024-03-06T04:33:30;27.40;;;24.10;;
66402;SDS011;53212;52.112;5.144;2024-03-06T04:35:56;27.00;;;24.20;;
66402;SDS011;53212;52.112;5.144;2024-03-06T04:38:21;26.20;;;23.40;;
66402;SDS011;53212;52.112;5.144;2024-03-06T04:40:47;28.40;;;25.10;;
66402;SDS011;53212;52.112;5.144;2024-03-06T04:43:13;30.70;;;24.70;;
66402;SDS011;53212;52.112;5.144;2024-03-06T04:45:38;27.70;;;24.60;;
66402;SDS011;53212;52.112;5.144;2024-03-06T04:48:04;31.90;;;25.50;;
66402;SDS011;53212;52.112;5.144;2024-03-06T04:50:30;31.70;;;25.20;;
66402;SDS011;53212;52.112;5.144;2024-03-06T04:52:56;33.00;;;26.80;;
66402;SDS011;53212;52.112;5.144;2024-03-06T04:55:21;30.00;;;25.90;;
66402;SDS011;53212;52.112;5.144;2024-03-06T04:57:48;30.80;;;25.40;;
66402;SDS011;53212;52.112;5.144;2024-03-06T05:00:14;29.20;;;25.40;;
66402;SDS011;53212;52.112;5.144;2024-03-06T05:02:40;29.10;;;25.90;;
66402;SDS011;53212;52.112;5.144;2024-03-06T05:05:07;33.20;;;26.40;;
66402;SDS011;53212;52.112;5.144;2024-03-06T05:07:36;33.10;;;26.60;;
66402;SDS011;53212;52.112;5.144;2024-03-06T05:10:01;34.80;;;27.40;;
66402;SDS011;53212;52.112;5.144;2024-03-06T05:12:27;30.10;;;26.40;;
66402;SDS011;53212;52.112;5.144;2024-03-06T05:14:53;30.00;;;26.20;;
66402;SDS011;53212;52.112;5.144;2024-03-06T05:17:20;32.10;;;25.60;;
66402;SDS011;53212;52.112;5.144;2024-03-06T05:19:46;34.10;;;26.50;;
66402;SDS011;53212;52.112;5.144;2024-03-06T05:22:13;35.10;;;25.90;;
66402;SDS011;53212;52.112;5.144;2024-03-06T05:24:39;33.80;;;26.50;;
66402;SDS011;53212;52.112;5.144;2024-03-06T05:27:05;34.90;;;27.40;;
66402;SDS011;53212;52.112;5.144;2024-03-06T05:29:31;30.20;;;26.90;;
66402;SDS011;53212;52.112;5.144;2024-03-06T05:31:57;31.50;;;26.40;;
66402;SDS011;53212;52.112;5.144;2024-03-06T05:34:23;30.70;;;25.90;;
66402;SDS011;53212;52.112;5.144;2024-03-06T05:36:49;36.50;;;27.50;;
66402;SDS011;53212;52.112;5.144;2024-03-06T05:39:14;31.10;;;27.10;;
66402;SDS011;53212;52.112;5.144;2024-03-06T05:41:40;37.40;;;28.70;;
66402;SDS011;53212;52.112;5.144;2024-03-06T05:44:07;30.90;;;27.20;;
66402;SDS011;53212;52.112;5.144;2024-03-06T05:46:33;37.30;;;28.30;;
66402;SDS011;53212;52.112;5.144;2024-03-06T05:48:59;38.90;;;29.50;;
66402;SDS011;53212;52.112;5.144;2024-03-06T05:51:26;31.50;;;27.80;;
66402;SDS011;53212;52.112;5.144;2024-03-06T05:53:51;35.10;;;27.80;;
66402;SDS011;53212;52.112;5.144;2024-03-06T05:56:17;30.80;;;27.60;;
66402;SDS011;53212;52.112;5.144;2024-03-06T05:58:43;34.30;;;29.00;;
66402;SDS011;53212;52.112;5.144;2024-03-06T06:01:15;32.80;;;28.20;;
66402;SDS011;53212;52.112;5.144;2024-03-06T06:03:46;36.80;;;28.20;;
66402;SDS011;53212;52.112;5.144;2024-03-06T06:06:15;35.60;;;28.60;;
66402;SDS011;53212;52.112;5.144;2024-03-06T06:08:41;37.30;;;29.40;;
66402;SDS011;53212;52.112;5.144;2024-03-06T06:11:06;31.40;;;27.60;;
66402;SDS011;53212;52.112;5.144;2024-03-06T06:13:33;33.90;;;27.60;;
66402;SDS011;53212;52.112;5.144;2024-03-06T06:15:58;30.80;;;27.20;;
66402;SDS011;53212;52.112;5.144;2024-03-06T06:18:24;34.00;;;29.10;;
66402;SDS011;53212;52.112;5.144;2024-03-06T06:20:49;35.50;;;28.60;;
66402;SDS011;53212;52.112;5.144;2024-03-06T06:23:16;41.90;;;29.10;;
66402;SDS011;53212;52.112;5.144;2024-03-06T06:25:41;41.60;;;29.00;;
66402;SDS011;53212;52.112;5.144;2024-03-06T06:28:07;38.40;;;31.10;;
66402;SDS011;53212;52.112;5.144;2024-03-06T06:30:32;36.80;;;30.10;;
66402;SDS011;53212;52.112;5.144;2024-03-06T06:32:57;39.90;;;29.20;;
66402;SDS011;53212;52.112;5.144;2024-03-06T06:35:26;40.30;;;30.00;;
66402;SDS011;53212;52.112;5.144;2024-03-06T06:37:52;40.60;;;30.10;;
66402;SDS011;53212;52.112;5.144;2024-03-06T06:40:18;36.80;;;28.90;;
66402;SDS011;53212;52.112;5.144;2024-03-06T06:42:45;43.60;;;29.80;;
66402;SDS011;53212;52.112;5.144;2024-03-06T06:45:15;43.40;;;29.20;;
66402;SDS011;53212;52.112;5.144;2024-03-06T06:47:41;38.60;;;28.60;;
66402;SDS011;53212;52.112;5.144;2024-03-06T06:50:07;42.40;;;29.10;;
66402;SDS011;53212;52.112;5.144;2024-03-06T06:52:35;39.90;;;28.70;;
66402;SDS011;53212;52.112;5.144;2024-03-06T06:55:01;43.90;;;27.20;;
66402;SDS011;53212;52.112;5.144;2024-03-06T06:57:27;60.50;;;27.40;;
66402;SDS011;53212;52.112;5.144;2024-03-06T06:59:52;51.00;;;27.00;;
66402;SDS011;53212;52.112;5.144;2024-03-06T07:02:18;63.60;;;28.00;;
66402;SDS011;53212;52.112;5.144;2024-03-06T07:04:44;60.20;;;26.90;;
66402;SDS011;53212;52.112;5.144;2024-03-06T07:07:09;59.10;;;26.40;;
66402;SDS011;53212;52.112;5.144;2024-03-06T07:09:35;33.00;;;24.20;;
66402;SDS011;53212;52.112;5.144;2024-03-06T07:12:00;64.70;;;25.30;;
66402;SDS011;53212;52.112;5.144;2024-03-06T07:14:26;44.10;;;24.80;;
66402;SDS011;53212;52.112;5.144;2024-03-06T07:16:51;54.80;;;24.40;;
66402;SDS011;53212;52.112;5.144;2024-03-06T07:19:17;44.90;;;24.40;;
66402;SDS011;53212;52.112;5.144;2024-03-06T07:21:44;51.60;;;25.00;;
66402;SDS011;53212;52.112;5.144;2024-03-06T07:24:09;42.00;;;25.20;;
66402;SDS011;53212;52.112;5.144;2024-03-06T07:26:34;39.30;;;24.70;;
66402;SDS011;53212;52.112;5.144;2024-03-06T07:29:00;46.60;;;26.10;;
66402;SDS011;53212;52.112;5.144;2024-03-06T07:31:26;38.90;;;26.20;;
66402;SDS011;53212;52.112;5.144;2024-03-06T07:33:52;38.00;;;26.70;;
66402;SDS011;53212;52.112;5.144;2024-03-06T07:36:17;43.30;;;26.10;;
66402;SDS011;53212;52.112;5.144;2024-03-06T07:38:43;34.00;;;24.90;;
66402;SDS011;53212;52.112;5.144;2024-03-06T07:41:09;35.70;;;25.20;;
66402;SDS011;53212;52.112;5.144;2024-03-06T07:43:36;40.10;;;25.20;;
66402;SDS011;53212;52.112;5.144;2024-03-06T07:46:01;32.90;;;24.40;;
66402;SDS011;53212;52.112;5.144;2024-03-06T07:48:27;34.50;;;25.90;;
66402;SDS011;53212;52.112;5.144;2024-03-06T07:50:52;40.50;;;25.90;;
66402;SDS011;53212;52.112;5.144;2024-03-06T07:53:17;30.10;;;24.10;;
66402;SDS011;53212;52.112;5.144;2024-03-06T07:55:43;35.70;;;24.10;;
66402;SDS011;53212;52.112;5.144;2024-03-06T07:58:09;54.10;;;24.50;;
66402;SDS011;53212;52.112;5.144;2024-03-06T08:00:35;36.50;;;23.80;;
66402;SDS011;53212;52.112;5.144;2024-03-06T08:03:01;28.90;;;23.50;;
66402;SDS011;53212;52.112;5.144;2024-03-06T08:05:28;31.40;;;23.30;;
66402;SDS011;53212;52.112;5.144;2024-03-06T08:07:53;29.50;;;23.10;;
66402;SDS011;53212;52.112;5.144;2024-03-06T08:10:19;31.70;;;24.20;;
66402;SDS011;53212;52.112;5.144;2024-03-06T08:12:45;37.00;;;24.40;;
66402;SDS011;53212;52.112;5.144;2024-03-06T08:15:13;32.50;;;24.20;;
66402;SDS011;53212;52.112;5.144;2024-03-06T08:17:41;36.60;;;23.90;;
66402;SDS011;53212;52.112;5.144;2024-03-06T08:20:09;40.00;;;25.20;;
66402;SDS011;53212;52.112;5.144;2024-03-06T08:22:39;35.50;;;24.30;;
66402;SDS011;53212;52.112;5.144;2024-03-06T08:25:10;30.80;;;23.90;;
66402;SDS011;53212;52.112;5.144;2024-03-06T08:27:38;37.10;;;25.10;;
66402;SDS011;53212;52.112;5.144;2024-03-06T08:30:05;26.50;;;22.90;;
66402;SDS011;53212;52.112;5.144;2024-03-06T08:32:35;26.10;;;23.50;;
66402;SDS011;53212;52.112;5.144;2024-03-06T08:35:03;26.90;;;24.20;;
66402;SDS011;53212;52.112;5.144;2024-03-06T08:37:40;26.00;;;23.20;;
66402;SDS011;53212;52.112;5.144;2024-03-06T08:40:07;27.10;;;23.10;;
66402;SDS011;53212;52.112;5.144;2024-03-06T08:42:35;26.20;;;23.30;;
66402;SDS011;53212;52.112;5.144;2024-03-06T08:45:01;29.90;;;23.90;;
66402;SDS011;53212;52.112;5.144;2024-03-06T08:47:27;26.10;;;23.50;;
66402;SDS011;53212;52.112;5.144;2024-03-06T08:49:53;32.60;;;24.20;;
66402;SDS011;53212;52.112;5.144;2024-03-06T08:52:19;25.60;;;22.80;;
66402;SDS011;53212;52.112;5.144;2024-03-06T08:54:46;26.70;;;23.90;;
66402;SDS011;53212;52.112;5.144;2024-03-06T08:57:12;26.20;;;23.50;;
66402;SDS011;53212;52.112;5.144;2024-03-06T08:59:37;26.00;;;23.30;;
66402;SDS011;53212;52.112;5.144;2024-03-06T09:02:17;25.00;;;22.30;;
66402;SDS011;53212;52.112;5.144;2024-03-06T09:04:44;25.70;;;23.00;;
66402;SDS011;53212;52.112;5.144;2024-03-06T09:07:11;25.60;;;23.00;;
66402;SDS011;53212;52.112;5.144;2024-03-06T09:09:37;25.70;;;22.90;;
66402;SDS011;53212;52.112;5.144;2024-03-06T09:12:07;24.50;;;21.90;;
66402;SDS011;53212;52.112;5.144;2024-03-06T09:14:38;25.50;;;22.80;;
66402;SDS011;53212;52.112;5.144;2024-03-06T09:17:05;26.10;;;23.30;;
66402;SDS011;53212;52.112;5.144;2024-03-06T09:19:32;25.10;;;22.60;;
66402;SDS011;53212;52.112;5.144;2024-03-06T09:21:58;25.00;;;22.40;;
66402;SDS011;53212;52.112;5.144;2024-03-06T09:24:24;25.30;;;22.50;;
66402;SDS011;53212;52.112;5.144;2024-03-06T09:26:51;25.00;;;22.30;;
66402;SDS011;53212;52.112;5.144;2024-03-06T09:29:18;25.00;;;22.50;;
66402;SDS011;53212;52.112;5.144;2024-03-06T09:31:44;25.00;;;22.30;;
66402;SDS011;53212;52.112;5.144;2024-03-06T09:34:11;23.80;;;21.50;;
66402;SDS011;53212;52.112;5.144;2024-03-06T09:36:50;23.80;;;21.00;;
66402;SDS011;53212;52.112;5.144;2024-03-06T09:39:16;22.60;;;20.40;;
66402;SDS011;53212;52.112;5.144;2024-03-06T09:41:52;22.80;;;20.40;;
66402;SDS011;53212;52.112;5.144;2024-03-06T09:44:19;21.90;;;19.60;;
66402;SDS011;53212;52.112;5.144;2024-03-06T09:46:46;21.10;;;19.10;;
66402;SDS011;53212;52.112;5.144;2024-03-06T09:49:15;21.80;;;19.70;;
66402;SDS011;53212;52.112;5.144;2024-03-06T09:51:47;23.20;;;20.90;;
66402;SDS011;53212;52.112;5.144;2024-03-06T09:54:16;23.50;;;20.30;;
66402;SDS011;53212;52.112;5.144;2024-03-06T09:56:48;22.10;;;19.90;;
66402;SDS011;53212;52.112;5.144;2024-03-06T09:59:14;22.40;;;20.10;;
66402;SDS011;53212;52.112;5.144;2024-03-06T10:01:53;21.80;;;19.60;;
66402;SDS011;53212;52.112;5.144;2024-03-06T10:06:48;21.50;;;19.30;;
66402;SDS011;53212;52.112;5.144;2024-03-06T10:09:18;20.10;;;18.20;;
66402;SDS011;53212;52.112;5.144;2024-03-06T10:11:44;19.90;;;17.80;;
66402;SDS011;53212;52.112;5.144;2024-03-06T10:14:11;20.40;;;18.40;;
66402;SDS011;53212;52.112;5.144;2024-03-06T10:16:37;19.70;;;17.60;;
66402;SDS011;53212;52.112;5.144;2024-03-06T10:19:15;18.80;;;17.00;;
66402;SDS011;53212;52.112;5.144;2024-03-06T10:21:43;18.40;;;16.60;;
66402;SDS011;53212;52.112;5.144;2024-03-06T10:24:19;18.90;;;17.10;;
66402;SDS011;53212;52.112;5.144;2024-03-06T10:26:55;20.10;;;18.00;;
66402;SDS011;53212;52.112;5.144;2024-03-06T10:29:24;19.10;;;17.30;;
66402;SDS011;53212;52.112;5.144;2024-03-06T10:31:52;18.80;;;17.00;;
66402;SDS011;53212;52.112;5.144;2024-03-06T10:34:22;19.70;;;17.70;;
66402;SDS011;53212;52.112;5.144;2024-03-06T10:37:01;19.30;;;17.40;;
66402;SDS011;53212;52.112;5.144;2024-03-06T10:39:33;18.30;;;16.60;;
66402;SDS011;53212;52.112;5.144;2024-03-06T10:41:59;18.90;;;17.00;;
66402;SDS011;53212;52.112;5.144;2024-03-06T10:44:27;18.60;;;16.70;;
66402;SDS011;53212;52.112;5.144;2024-03-06T10:47:01;18.10;;;16.40;;
66402;SDS011;53212;52.112;5.144;2024-03-06T10:49:29;17.60;;;16.00;;
66402;SDS011;53212;52.112;5.144;2024-03-06T10:52:00;17.20;;;15.50;;
66402;SDS011;53212;52.112;5.144;2024-03-06T10:54:28;16.70;;;15.20;;
66402;SDS011;53212;52.112;5.144;2024-03-06T10:56:56;18.70;;;16.90;;
66402;SDS011;53212;52.112;5.144;2024-03-06T10:59:25;18.70;;;16.20;;
66402;SDS011;53212;52.112;5.144;2024-03-06T11:01:58;19.70;;;17.50;;
66402;SDS011;53212;52.112;5.144;2024-03-06T11:06:56;20.60;;;18.50;;
66402;SDS011;53212;52.112;5.144;2024-03-06T11:09:25;18.50;;;16.70;;
66402;SDS011;53212;52.112;5.144;2024-03-06T11:11:52;19.80;;;17.90;;
66402;SDS011;53212;52.112;5.144;2024-03-06T11:14:23;21.00;;;18.80;;
66402;SDS011;53212;52.112;5.144;2024-03-06T11:17:06;22.50;;;20.30;;
66402;SDS011;53212;52.112;5.144;2024-03-06T11:20:35;21.10;;;19.10;;
66402;SDS011;53212;52.112;5.144;2024-03-06T11:28:11;19.60;;;17.70;;
66402;SDS011;53212;52.112;5.144;2024-03-06T11:30:45;19.70;;;17.60;;
66402;SDS011;53212;52.112;5.144;2024-03-06T11:33:20;22.60;;;18.20;;
66402;SDS011;53212;52.112;5.144;2024-03-06T11:41:23;22.00;;;19.80;;
66402;SDS011;53212;52.112;5.144;2024-03-06T11:43:54;22.90;;;20.50;;
66402;SDS011;53212;52.112;5.144;2024-03-06T11:49:22;22.90;;;20.60;;
66402;SDS011;53212;52.112;5.144;2024-03-06T11:51:57;21.40;;;18.60;;
66402;SDS011;53212;52.112;5.144;2024-03-06T11:54:24;19.40;;;17.30;;
66402;SDS011;53212;52.112;5.144;2024-03-06T11:56:58;22.10;;;18.90;;
66402;SDS011;53212;52.112;5.144;2024-03-06T11:59:29;20.90;;;18.20;;
66402;SDS011;53212;52.112;5.144;2024-03-06T12:04:24;19.00;;;17.10;;
66402;SDS011;53212;52.112;5.144;2024-03-06T12:06:50;19.50;;;17.20;;
66402;SDS011;53212;52.112;5.144;2024-03-06T12:09:16;21.80;;;17.70;;
66402;SDS011;53212;52.112;5.144;2024-03-06T12:11:42;19.70;;;17.60;;
66402;SDS011;53212;52.112;5.144;2024-03-06T12:14:17;18.10;;;16.20;;
66402;SDS011;53212;52.112;5.144;2024-03-06T12:17:00;16.20;;;13.80;;
66402;SDS011;53212;52.112;5.144;2024-03-06T12:19:32;16.60;;;14.90;;
66402;SDS011;53212;52.112;5.144;2024-03-06T12:22:00;16.70;;;14.90;;
66402;SDS011;53212;52.112;5.144;2024-03-06T12:24:26;17.00;;;15.00;;
66402;SDS011;53212;52.112;5.144;2024-03-06T12:26:59;16.80;;;15.00;;
66402;SDS011;53212;52.112;5.144;2024-03-06T12:29:28;14.80;;;13.30;;
66402;SDS011;53212;52.112;5.144;2024-03-06T12:31:58;12.90;;;11.70;;
66402;SDS011;53212;52.112;5.144;2024-03-06T12:34:24;12.10;;;10.70;;
66402;SDS011;53212;52.112;5.144;2024-03-06T12:36:50;9.20;;;8.20;;
66402;SDS011;53212;52.112;5.144;2024-03-06T12:39:16;12.90;;;10.30;;
66402;SDS011;53212;52.112;5.144;2024-03-06T12:41:50;13.50;;;11.40;;
66402;SDS011;53212;52.112;5.144;2024-03-06T12:44:16;11.80;;;10.60;;
66402;SDS011;53212;52.112;5.144;2024-03-06T12:46:42;13.70;;;12.30;;
66402;SDS011;53212;52.112;5.144;2024-03-06T12:49:07;12.80;;;11.50;;
66402;SDS011;53212;52.112;5.144;2024-03-06T12:51:33;10.80;;;9.70;;
66402;SDS011;53212;52.112;5.144;2024-03-06T12:53:58;11.70;;;10.50;;
66402;SDS011;53212;52.112;5.144;2024-03-06T12:56:24;14.80;;;12.40;;
66402;SDS011;53212;52.112;5.144;2024-03-06T12:58:52;14.30;;;12.90;;
66402;SDS011;53212;52.112;5.144;2024-03-06T13:01:17;13.10;;;11.20;;
66402;SDS011;53212;52.112;5.144;2024-03-06T13:03:43;9.40;;;8.20;;
66402;SDS011;53212;52.112;5.144;2024-03-06T13:06:08;11.60;;;10.50;;
66402;SDS011;53212;52.112;5.144;2024-03-06T13:08:35;11.50;;;10.30;;
66402;SDS011;53212;52.112;5.144;2024-03-06T13:11:01;11.40;;;10.20;;
66402;SDS011;53212;52.112;5.144;2024-03-06T13:13:27;11.30;;;9.40;;
66402;SDS011;53212;52.112;5.144;2024-03-06T13:15:54;10.40;;;9.20;;
66402;SDS011;53212;52.112;5.144;2024-03-06T13:18:20;8.20;;;7.40;;
66402;SDS011;53212;52.112;5.144;2024-03-06T13:20:46;9.40;;;8.10;;
66402;SDS011;53212;52.112;5.144;2024-03-06T13:23:12;10.70;;;9.70;;
66402;SDS011;53212;52.112;5.144;2024-03-06T13:25:38;8.80;;;7.90;;
66402;SDS011;53212;52.112;5.144;2024-03-06T13:28:03;6.40;;;5.80;;
66402;SDS011;53212;52.112;5.144;2024-03-06T13:30:30;5.40;;;4.40;;
66402;SDS011;53212;52.112;5.144;2024-03-06T13:32:56;7.00;;;5.50;;
66402;SDS011;53212;52.112;5.144;2024-03-06T13:35:22;7.60;;;6.50;;
66402;SDS011;53212;52.112;5.144;2024-03-06T13:37:48;6.80;;;6.20;;
66402;SDS011;53212;52.112;5.144;2024-03-06T13:40:14;6.40;;;5.80;;
66402;SDS011;53212;52.112;5.144;2024-03-06T13:42:41;7.90;;;7.10;;
66402;SDS011;53212;52.112;5.144;2024-03-06T13:45:08;7.80;;;6.80;;
66402;SDS011;53212;52.112;5.144;2024-03-06T13:47:40;6.80;;;6.20;;
66402;SDS011;53212;52.112;5.144;2024-03-06T13:50:14;7.80;;;7.00;;
66402;SDS011;53212;52.112;5.144;2024-03-06T13:52:42;8.10;;;7.20;;
66402;SDS011;53212;52.112;5.144;2024-03-06T13:55:08;9.50;;;8.20;;
66402;SDS011;53212;52.112;5.144;2024-03-06T13:57:36;8.50;;;6.80;;
66402;SDS011;53212;52.112;5.144;2024-03-06T14:00:07;6.70;;;5.70;;
66402;SDS011;53212;52.112;5.144;2024-03-06T14:02:44;5.80;;;4.70;;
66402;SDS011;53212;52.112;5.144;2024-03-06T14:05:12;5.70;;;4.10;;
66402;SDS011;53212;52.112;5.144;2024-03-06T14:07:39;5.20;;;4.70;;
66402;SDS011;53212;52.112;5.144;2024-03-06T14:10:06;3.80;;;3.40;;
66402;SDS011;53212;52.112;5.144;2024-03-06T14:12:34;4.10;;;3.70;;
66402;SDS011;53212;52.112;5.144;2024-03-06T14:15:05;4.40;;;3.60;;
66402;SDS011;53212;52.112;5.144;2024-03-06T14:17:34;4.80;;;4.40;;
66402;SDS011;53212;52.112;5.144;2024-03-06T14:19:59;5.70;;;4.30;;
66402;SDS011;53212;52.112;5.144;2024-03-06T14:22:25;6.50;;;3.20;;
66402;SDS011;53212;52.112;5.144;2024-03-06T14:24:50;4.00;;;3.50;;
66402;SDS011;53212;52.112;5.144;2024-03-06T14:27:15;5.40;;;4.60;;
66402;SDS011;53212;52.112;5.144;2024-03-06T14:29:41;6.30;;;5.80;;
66402;SDS011;53212;52.112;5.144;2024-03-06T14:32:07;6.00;;;5.30;;
66402;SDS011;53212;52.112;5.144;2024-03-06T14:34:32;4.40;;;3.80;;
66402;SDS011;53212;52.112;5.144;2024-03-06T14:36:58;4.90;;;4.20;;
66402;SDS011;53212;52.112;5.144;2024-03-06T14:39:23;3.00;;;2.50;;
66402;SDS011;53212;52.112;5.144;2024-03-06T14:41:51;2.20;;;2.00;;
66402;SDS011;53212;52.112;5.144;2024-03-06T14:44:16;3.30;;;2.50;;